Latest Weather Observations for Merimbula

IDN60801

Issued at 10:02 am EDT Tuesday 9 February 2016 (issued every 30 minutes, with the page automatically refreshed every 10 minutes)

About weather observations | Map of weather stations | Latest weather observations for NSW | Other Formats
Station Details ID: 069147 Name: MERIMBULA AIRPORT AWS Lat: -36.91 Lon: 149.90 Height: 1.5 m
Data from the previous 72 hours. | See also: Recent months at Merimbula
Date/Time
EDT
Temp
°C
App
Temp
°C
Dew
Point
Rel
Hum
%
Delta-T
°C
Wind Press
QNH
hPa
Press
MSL
hPa
Rain
since 9 am
mm
Dir
 
Spd
km/h
Gust
km/h
Spd
kts
Gust
kts
09/10:00am 22.6 22.5 13.9 58 5.1 WSW 7 13 4 7 1022.1 1022.1 0.0
09/09:30am 21.6 20.7 13.8 61 4.5 WSW 11 17 6 9 1022.1 1022.1 0.0
09/09:00am 20.7 19.8 13.6 64 4.1 WSW 11 17 6 9 1022.2 1022.2 0.0
09/08:30am 18.8 17.7 13.0 69 3.3 W 11 17 6 9 1022.1 1022.1 0.0
09/08:00am 17.0 16.7 14.5 85 1.4 WNW 9 13 5 7 1022.1 1022.1 0.0
09/07:30am 15.8 15.3 15.0 95 0.5 WNW 11 13 6 7 1021.9 1021.9 0.0
09/07:13am 15.0 16.0 14.4 96 0.3 WNW 2 13 1 7 1021.8 1021.8 0.0
09/07:00am 14.3 15.5 13.7 96 0.3 CALM 0 0 0 0 1021.7 1021.7 0.0
09/06:30am 14.3 15.4 13.5 95 0.4 CALM 0 0 0 0 1021.5 1021.5 0.0
09/06:28am 14.2 15.3 13.4 95 0.4 CALM 0 0 0 0 1021.5 1021.5 0.0
09/06:23am 13.9 14.9 13.1 95 0.4 CALM 0 0 0 0 1021.5 1021.5 0.0
09/06:00am 13.4 14.2 12.5 94 0.5 CALM 0 0 0 0 1021.2 1021.2 0.0
09/05:48am 13.9 14.8 13.0 94 0.5 CALM 0 2 0 1 1021.2 1021.2 0.0
09/05:46am 14.0 14.6 13.1 94 0.5 SSW 2 7 1 4 1021.1 1021.1 0.0
09/05:30am 14.4 14.3 13.4 94 0.6 SW 6 9 3 5 1020.9 1020.9 0.0
09/05:27am 14.6 14.7 13.8 95 0.4 SW 6 9 3 5 1020.9 1020.9 0.0
09/05:17am 14.7 15.2 13.9 95 0.4 SW 4 11 2 6 1020.8 1020.8 0.0
09/05:00am 14.5 15.6 13.4 93 0.6 CALM 0 0 0 0 1020.7 1020.7 0.0
09/04:57am 14.2 15.2 13.1 93 0.6 CALM 0 0 0 0 1020.7 1020.7 0.0
09/04:56am 14.1 15.0 13.0 93 0.6 CALM 0 0 0 0 1020.7 1020.7 0.0
09/04:30am 14.8 16.0 13.8 94 0.6 CALM 0 0 0 0 1020.6 1020.6 0.0
09/04:21am 15.1 16.4 14.1 94 0.6 CALM 0 0 0 0 1020.6 1020.6 0.0
09/04:00am 15.5 16.9 14.5 94 0.6 CALM 0 9 0 5 1020.5 1020.5 0.0
09/03:58am 15.5 16.9 14.5 94 0.6 CALM 0 0 0 0 1020.5 1020.5 0.0
09/03:39am 15.5 16.9 14.5 94 0.6 CALM 0 0 0 0 1020.6 1020.6 0.0
09/03:30am 16.0 17.7 15.2 95 0.5 CALM 0 0 0 0 1020.6 1020.6 0.0
09/03:19am 16.1 17.8 15.1 94 0.6 CALM 0 0 0 0 1020.6 1020.6 0.0
09/03:00am 15.5 16.9 14.5 94 0.6 CALM 0 0 0 0 1020.5 1020.5 0.0
09/02:30am 15.7 17.1 14.4 92 0.7 CALM 0 0 0 0 1020.5 1020.5 0.0
09/02:24am 15.9 17.5 14.8 93 0.6 CALM 0 0 0 0 1020.5 1020.5 0.0
09/02:18am 16.2 17.9 15.1 93 0.6 CALM 0 0 0 0 1020.6 1020.6 0.0
09/02:00am 16.0 17.6 14.9 93 0.6 CALM 0 0 0 0 1020.7 1020.7 0.0
09/01:47am 16.6 18.4 15.5 93 0.6 CALM 0 0 0 0 1020.6 1020.6 0.0
09/01:30am 16.9 18.8 15.8 93 0.6 CALM 0 0 0 0 1020.7 1020.7 0.0
09/01:26am 17.0 19.0 16.0 94 0.6 CALM 0 0 0 0 1020.7 1020.7 0.0
09/01:00am 16.6 18.3 15.1 91 0.9 CALM 0 0 0 0 1020.9 1020.9 0.0
09/12:57am 16.5 18.1 15.0 91 0.9 CALM 0 0 0 0 1020.9 1020.9 0.0
09/12:30am 17.2 19.1 15.7 91 0.9 CALM 0 0 0 0 1021.0 1021.0 0.0
09/12:00am 18.3 20.7 17.0 92 0.8 CALM 0 0 0 0 1021.1 1021.1 0.0
 
Date/Time
EDT
Temp
°C
App
Temp
°C
Dew
Point
Rel
Hum
%
Delta-T
°C
Wind Press
QNH
hPa
Press
MSL
hPa
Rain
since 9 am
mm
Dir
 
Spd
km/h
Gust
km/h
Spd
kts
Gust
kts
08/11:30pm 18.7 21.3 17.4 92 0.8 CALM 0 0 0 0 1021.0 1021.0 0.0
08/11:21pm 18.3 20.5 16.6 90 1.0 CALM 0 0 0 0 1021.1 1021.1 0.0
08/11:00pm 18.5 20.8 16.7 89 1.1 CALM 0 0 0 0 1021.1 1021.1 0.0
08/10:58pm 18.5 20.8 16.7 89 1.1 CALM 0 0 0 0 1021.1 1021.1 0.0
08/10:30pm 19.3 21.9 17.4 89 1.2 CALM 0 0 0 0 1021.0 1021.0 0.0
08/10:00pm 19.8 22.4 17.4 86 1.5 CALM 0 0 0 0 1020.6 1020.6 0.0
08/09:30pm 20.3 23.0 17.7 85 1.6 CALM 0 0 0 0 1020.4 1020.4 0.0
08/09:00pm 20.8 23.1 17.6 82 2.0 NW 2 9 1 5 1020.1 1020.1 0.0
08/08:30pm 21.1 22.5 17.7 81 2.1 NNW 7 11 4 6 1019.9 1019.9 0.0
08/08:00pm 21.7 23.0 17.5 77 2.6 NNW 7 11 4 6 1019.7 1019.7 0.0
08/07:30pm 22.1 23.1 17.7 76 2.7 N 9 13 5 7 1019.5 1019.5 0.0
08/07:00pm 22.5 23.9 17.8 75 2.9 ENE 7 11 4 6 1019.2 1019.2 0.0
08/06:30pm 23.1 23.8 18.0 73 3.2 ESE 11 17 6 9 1019.1 1019.1 0.0
08/06:00pm 23.4 23.3 17.8 71 3.5 ESE 15 22 8 12 1019.0 1019.0 0.0
08/05:30pm 23.8 23.8 18.2 71 3.5 ESE 15 24 8 13 1019.1 1019.1 0.0
08/05:00pm 24.2 23.4 17.9 68 3.9 SE 19 28 10 15 1019.1 1019.1 0.0
08/04:30pm 24.3 23.4 18.2 68 3.8 SE 20 33 11 18 1019.1 1019.1 0.0
08/04:00pm 24.3 23.5 18.0 68 3.9 SE 19 30 10 16 1019.1 1019.1 0.0
08/03:30pm 24.3 23.5 18.0 68 4.0 ESE 19 28 10 15 1019.1 1019.1 0.0
08/03:00pm 24.9 24.7 18.6 68 4.0 ESE 17 26 9 14 1019.2 1019.2 0.0
08/02:30pm 25.0 25.4 18.9 69 3.9 ESE 15 30 8 16 1019.1 1019.1 0.0
08/02:00pm 25.0 24.6 18.9 69 3.9 ESE 19 26 10 14 1019.1 1019.1 0.0
08/01:30pm 25.1 24.9 18.5 67 4.2 ESE 17 24 9 13 1019.2 1019.2 0.0
08/01:00pm 25.2 25.6 18.9 68 4.0 ESE 15 24 8 13 1019.3 1019.3 0.0
08/12:30pm 25.0 24.9 18.7 68 4.0 E 17 26 9 14 1019.3 1019.3 0.0
08/12:00pm 24.6 24.7 18.3 68 4.0 E 15 22 8 12 1019.4 1019.4 0.0
08/11:30am 24.7 25.4 17.9 66 4.3 E 11 17 6 9 1019.4 1019.4 0.0
08/11:00am 24.5 24.5 16.2 60 5.1 E 11 15 6 8 1019.3 1019.3 0.0
08/10:30am 24.5 25.1 16.7 61 4.8 E 9 15 5 8 1019.3 1019.3 0.0
08/10:00am 23.9 24.5 16.7 64 4.4 ESE 9 13 5 7 1019.3 1019.3 0.0
08/09:30am 23.5 24.9 16.5 65 4.3 ESE 4 11 2 6 1019.1 1019.1 0.0
08/09:00am 21.1 23.1 16.1 73 3.0 CALM 0 0 0 0 1019.1 1019.1 0.0
08/08:30am 18.9 20.9 16.0 83 1.7 CALM 0 0 0 0 1019.0 1019.0 0.0
08/08:00am 16.9 18.3 15.4 91 0.9 SSW 2 7 1 4 1019.0 1019.0 0.0
08/07:41am 16.4 16.9 15.6 95 0.5 SSW 7 9 4 5 1018.9 1018.9 0.0
08/07:30am 16.3 17.0 15.7 96 0.4 SW 6 7 3 4 1018.8 1018.8 0.0
08/07:00am 14.9 14.9 14.3 96 0.3 SSW 7 9 4 5 1018.7 1018.7 0.0
08/06:30am 14.5 14.0 13.7 95 0.4 SSW 9 11 5 6 1018.4 1018.4 0.0
08/06:00am 14.8 14.7 14.0 95 0.4 SSW 7 9 4 5 1018.2 1018.2 0.0
08/05:30am 15.0 15.0 14.2 95 0.5 S 7 9 4 5 1017.8 1017.8 0.0
08/05:00am 14.9 14.9 14.1 95 0.4 SSW 7 9 4 5 1017.8 1017.8 0.0
08/04:30am 15.3 15.6 14.5 95 0.5 SW 6 7 3 4 1017.8 1017.8 0.0
08/04:00am 15.4 15.6 14.6 95 0.5 SSW 7 11 4 6 1017.9 1017.9 0.0
08/03:30am 15.5 16.9 14.5 94 0.6 CALM 0 0 0 0 1017.9 1017.9 0.0
08/03:00am 15.0 16.2 13.7 92 0.7 CALM 0 0 0 0 1017.9 1017.9 0.0
08/02:30am 15.9 17.5 14.9 94 0.6 CALM 0 0 0 0 1018.1 1018.1 0.0
08/02:00am 16.0 17.6 15.0 94 0.6 CALM 0 0 0 0 1018.3 1018.3 0.0
08/01:30am 16.3 18.0 15.2 93 0.6 CALM 0 0 0 0 1018.6 1018.6 0.0
08/01:00am 16.6 18.4 15.5 93 0.6 CALM 0 0 0 0 1018.7 1018.7 0.0
08/12:30am 16.6 18.3 15.3 92 0.8 CALM 0 0 0 0 1018.7 1018.7 0.0
08/12:00am 17.2 19.2 15.9 92 0.8 CALM 0 0 0 0 1018.8 1018.8 0.0
 
Date/Time
EDT
Temp
°C
App
Temp
°C
Dew
Point
Rel
Hum
%
Delta-T
°C
Wind Press
QNH
hPa
Press
MSL
hPa
Rain
since 9 am
mm
Dir
 
Spd
km/h
Gust
km/h
Spd
kts
Gust
kts
07/11:30pm 17.0 18.7 15.3 90 1.0 CALM 0 0 0 0 1018.8 1018.8 0.0
07/11:00pm 17.7 19.7 15.9 89 1.1 CALM 0 0 0 0 1019.0 1019.0 0.0
07/10:30pm 18.4 20.5 16.2 87 1.3 CALM 0 0 0 0 1018.9 1018.9 0.0
07/10:00pm 19.0 21.2 16.6 86 1.4 CALM 0 0 0 0 1018.9 1018.9 0.0
07/09:30pm 20.0 22.6 17.4 85 1.6 CALM 0 0 0 0 1018.7 1018.7 0.0
07/09:00pm 20.7 22.8 17.1 80 2.2 N 2 9 1 5 1018.3 1018.3 0.0
07/08:30pm 21.3 22.7 17.3 78 2.5 NNE 6 9 3 5 1017.9 1017.9 0.0
07/08:00pm 22.1 22.9 17.2 74 3.0 NE 9 15 5 8 1017.6 1017.6 0.0
07/07:30pm 22.7 22.8 16.5 68 3.8 NE 11 17 6 9 1017.3 1017.3 0.0
07/07:00pm 23.2 23.3 16.5 66 4.1 NE 11 17 6 9 1017.0 1017.0 0.0
07/06:30pm 23.6 23.7 16.4 64 4.4 NNE 11 20 6 11 1016.7 1016.7 0.0
07/06:00pm 23.8 23.4 16.3 63 4.6 NE 13 22 7 12 1016.6 1016.6 0.0
07/05:30pm 24.9 25.1 17.6 64 4.6 NE 13 20 7 11 1016.5 1016.5 0.0
07/05:00pm 24.5 23.5 16.7 61 4.8 ENE 17 28 9 15 1016.6 1016.6 0.0
07/04:30pm 24.5 23.7 16.2 60 5.1 NE 15 22 8 12 1016.5 1016.5 0.0
07/04:00pm 24.4 23.2 16.1 60 5.0 NE 17 22 9 12 1016.5 1016.5 0.0
07/03:30pm 24.8 23.9 16.8 61 4.9 NE 17 24 9 13 1016.6 1016.6 0.0
07/03:00pm 24.9 24.0 16.9 61 4.9 NE 17 26 9 14 1016.7 1016.7 0.0
07/02:30pm 24.7 23.2 16.7 61 4.9 NE 20 30 11 16 1016.8 1016.8 0.0
07/02:00pm 24.4 22.6 16.1 60 5.0 NE 20 28 11 15 1016.8 1016.8 0.0
07/01:30pm 24.3 22.6 15.8 59 5.1 NE 19 28 10 15 1017.0 1017.0 0.0
07/01:00pm 25.0 23.8 17.0 61 4.9 NE 19 30 10 16 1017.0 1017.0 0.0
07/12:30pm 24.0 22.4 16.0 61 4.9 NE 19 28 10 15 1017.2 1017.2 0.0
07/12:00pm 24.5 23.1 16.5 61 4.9 NE 19 26 10 14 1017.2 1017.2 0.0
07/11:30am 23.8 22.2 15.0 57 5.3 NE 17 26 9 14 1017.4 1017.4 0.0
07/11:00am 23.5 22.0 15.3 60 4.9 NE 17 28 9 15 1017.7 1017.7 0.0
07/10:30am 23.8 23.4 15.3 59 5.1 N 11 17 6 9 1017.8 1017.8 0.0
07/10:00am 23.1 21.8 13.8 55 5.4 N 13 20 7 11 1017.8 1017.8 0.0
07/09:30am 22.4 21.2 14.0 59 4.9 N 13 20 7 11 1017.9 1017.9 0.0
07/09:00am 21.3 21.3 15.2 68 3.6 NW 9 15 5 8 1018.0 1018.0 0.2
07/08:30am 19.8 19.4 15.2 75 2.7 NW 11 15 6 8 1018.1 1018.1 0.2
07/08:00am 17.6 17.5 15.0 85 1.5 W 9 11 5 6 1018.0 1018.0 0.2
07/07:30am 16.0 17.6 15.0 94 0.6 CALM 0 0 0 0 1018.0 1018.0 0.2
07/07:00am 14.5 14.0 13.7 95 0.4 SW 9 11 5 6 1018.0 1018.0 0.2
07/06:30am 13.9 14.8 13.0 94 0.5 CALM 0 0 0 0 1017.7 1017.7 0.2
07/06:00am 13.6 14.3 12.3 92 0.7 CALM 0 0 0 0 1017.5 1017.5 0.2
07/05:30am 14.4 15.4 13.1 92 0.7 CALM 0 0 0 0 1017.3 1017.3 0.2
07/05:00am 14.4 15.3 12.8 90 0.9 CALM 0 0 0 0 1017.3 1017.3 0.2
07/04:30am 15.0 16.0 13.2 89 1.0 CALM 0 0 0 0 1017.4 1017.4 0.2
07/04:00am 16.0 15.6 14.2 89 1.0 NW 9 11 5 6 1017.3 1017.3 0.2
07/03:30am 16.5 15.9 14.5 88 1.1 NW 11 13 6 7 1017.5 1017.5 0.2
07/03:00am 17.3 17.1 14.8 85 1.4 NW 9 13 5 7 1017.6 1017.6 0.2
07/02:47am 17.7 17.9 14.8 83 1.7 NW 7 11 4 6 1017.7 1017.7 0.2
07/02:30am 18.3 19.8 14.6 79 2.1 CALM 0 0 0 0 1017.8 1017.8 0.2
07/02:28am 18.3 19.7 14.4 78 2.2 CALM 0 0 0 0 1017.8 1017.8 0.2
07/02:00am 19.4 19.7 15.1 76 2.5 NNW 7 9 4 5 1018.0 1018.0 0.2
07/01:30am 19.7 19.4 14.3 71 3.1 N 9 15 5 8 1018.3 1018.3 0.2
07/01:00am 20.0 19.8 14.6 71 3.1 N 9 13 5 7 1018.6 1018.6 0.2
07/12:30am 20.1 19.9 14.7 71 3.2 N 9 15 5 8 1018.8 1018.8 0.2
07/12:00am 20.2 20.0 14.8 71 3.2 N 9 13 5 7 1018.9 1018.9 0.2
 
Date/Time
EDT
Temp
°C
App
Temp
°C
Dew
Point
Rel
Hum
%
Delta-T
°C
Wind Press
QNH
hPa
Press
MSL
hPa
Rain
since 9 am
mm
Dir
 
Spd
km/h
Gust
km/h
Spd
kts
Gust
kts
06/11:30pm 20.3 20.1 14.7 70 3.3 N 9 13 5 7 1019.0 1019.0 0.2
06/11:00pm 20.6 20.3 14.5 68 3.6 NNE 9 13 5 7 1019.1 1019.1 0.2
06/10:30pm 20.6 19.9 14.3 67 3.7 NE 11 17 6 9 1019.2 1019.2 0.2
06/10:00pm 21.0 20.0 14.6 67 3.7 NE 13 20 7 11 1019.1 1019.1 0.2
06/09:30pm 20.8 20.2 14.7 68 3.6 NE 11 15 6 8 1018.9 1018.9 0.2
06/09:00pm 20.9 19.9 14.5 67 3.7 NE 13 19 7 10 1018.8 1018.8 0.2
06/08:30pm 20.9 20.6 14.3 66 3.8 NE 9 17 5 9 1018.6 1018.6 0.2
06/08:00pm 20.9 20.1 14.1 65 3.9 NE 11 17 6 9 1018.5 1018.5 0.2
06/07:30pm 21.1 20.3 14.0 64 4.1 ENE 11 17 6 9 1018.2 1018.2 0.2
06/07:00pm 21.7 21.0 14.4 63 4.3 ENE 11 17 6 9 1018.3 1018.3 0.2
06/06:30pm 21.8 20.4 14.4 63 4.3 ENE 15 20 8 11 1018.0 1018.0 0.2
06/06:00pm 22.3 21.0 14.7 62 4.5 ENE 15 20 8 11 1018.0 1018.0 0.2
06/05:30pm 22.5 21.1 14.6 61 4.7 ENE 15 22 8 12 1017.9 1017.9 0.2
06/05:00pm 22.7 21.3 14.5 60 4.8 ENE 15 22 8 12 1017.9 1017.9 0.2
06/04:30pm 23.3 21.4 15.1 60 4.9 ENE 19 26 10 14 1018.0 1018.0 0.2
06/04:00pm 23.7 22.4 14.7 57 5.3 ENE 15 22 8 12 1018.0 1018.0 0.2
06/03:30pm 23.8 22.2 15.0 57 5.3 ENE 17 22 9 12 1018.3 1018.3 0.2
06/03:00pm 24.1 23.2 15.9 60 5.0 ENE 15 20 8 11 1018.5 1018.5 0.2
06/02:30pm 23.7 22.9 15.2 59 5.1 ENE 13 20 7 11 1018.8 1018.8 0.2
06/02:00pm 23.9 22.5 14.6 56 5.5 NE 15 22 8 12 1019.0 1019.0 0.2
06/01:30pm 24.0 23.1 15.8 60 5.0 ENE 15 24 8 13 1019.2 1019.2 0.2
06/01:00pm 24.0 23.9 17.0 65 4.3 ENE 13 20 7 11 1019.5 1019.5 0.2
06/12:30pm 23.6 23.9 16.1 62 4.6 ENE 9 15 5 8 1019.8 1019.8 0.2
06/12:00pm 22.7 22.9 14.8 61 4.7 NNE 7 11 4 6 1020.1 1020.1 0.2
06/11:30am 23.4 23.7 16.0 63 4.5 E 9 13 5 7 1020.2 1020.2 0.2
06/11:00am 22.9 24.8 15.7 64 4.3 CALM 0 6 0 3 1020.3 1020.3 0.2
06/10:30am 21.8 23.8 15.9 69 3.5 CALM 0 0 0 0 1020.5 1020.5 0.0

Other Formats:

Comma delimited format used in spreadsheet applications
http://www.bom.gov.au/fwo/IDN60801/IDN60801.95929.axf

JavaScript Object Notation format (JSON) in row-major order
http://www.bom.gov.au/fwo/IDN60801/IDN60801.95929.json